sensor_id;sensor_type;location;lat;lon;timestamp;temperature;humidity
67165;SHT31;54093;50.014;19.984;2022-10-29T00:00:07;11.42;88.62
67165;SHT31;54093;50.014;19.984;2022-10-29T00:09:48;11.41;89.07
67165;SHT31;54093;50.014;19.984;2022-10-29T00:19:09;11.38;88.75
67165;SHT31;54093;50.014;19.984;2022-10-29T00:28:30;11.31;88.55
67165;SHT31;54093;50.014;19.984;2022-10-29T00:37:51;11.15;89.00
67165;SHT31;54093;50.014;19.984;2022-10-29T00:47:22;11.14;89.05
67165;SHT31;54093;50.014;19.984;2022-10-29T00:56:49;11.14;89.13
67165;SHT31;54093;50.014;19.984;2022-10-29T01:06:12;11.18;88.99
67165;SHT31;54093;50.014;19.984;2022-10-29T01:25:29;11.17;89.27
67165;SHT31;54093;50.014;19.984;2022-10-29T01:35:02;11.13;88.75
67165;SHT31;54093;50.014;19.984;2022-10-29T01:44:36;11.01;88.77
67165;SHT31;54093;50.014;19.984;2022-10-29T01:53:58;10.90;89.16
67165;SHT31;54093;50.014;19.984;2022-10-29T02:03:50;10.87;89.17
67165;SHT31;54093;50.014;19.984;2022-10-29T02:13:16;10.81;88.98
67165;SHT31;54093;50.014;19.984;2022-10-29T02:22:38;10.81;89.26
67165;SHT31;54093;50.014;19.984;2022-10-29T02:31:59;10.79;89.66
67165;SHT31;54093;50.014;19.984;2022-10-29T02:41:20;10.80;89.69
67165;SHT31;54093;50.014;19.984;2022-10-29T02:50:41;10.77;89.57
67165;SHT31;54093;50.014;19.984;2022-10-29T03:00:02;10.72;89.24
67165;SHT31;54093;50.014;19.984;2022-10-29T03:09:23;10.66;89.07
67165;SHT31;54093;50.014;19.984;2022-10-29T03:18:44;10.59;89.22
67165;SHT31;54093;50.014;19.984;2022-10-29T03:28:05;10.52;89.14
67165;SHT31;54093;50.014;19.984;2022-10-29T03:37:25;10.48;89.35
67165;SHT31;54093;50.014;19.984;2022-10-29T03:46:46;10.42;89.46
67165;SHT31;54093;50.014;19.984;2022-10-29T03:56:08;10.36;88.89
67165;SHT31;54093;50.014;19.984;2022-10-29T04:05:29;10.25;89.20
67165;SHT31;54093;50.014;19.984;2022-10-29T04:14:50;10.18;89.80
67165;SHT31;54093;50.014;19.984;2022-10-29T04:24:11;10.15;89.93
67165;SHT31;54093;50.014;19.984;2022-10-29T04:33:32;10.16;89.44
67165;SHT31;54093;50.014;19.984;2022-10-29T04:42:52;10.15;89.35
67165;SHT31;54093;50.014;19.984;2022-10-29T04:52:13;10.14;89.41
67165;SHT31;54093;50.014;19.984;2022-10-29T05:01:34;10.12;89.64
67165;SHT31;54093;50.014;19.984;2022-10-29T05:10:54;10.14;89.82
67165;SHT31;54093;50.014;19.984;2022-10-29T05:20:15;10.22;89.70
67165;SHT31;54093;50.014;19.984;2022-10-29T05:29:36;10.24;89.45
67165;SHT31;54093;50.014;19.984;2022-10-29T05:38:57;10.24;89.23
67165;SHT31;54093;50.014;19.984;2022-10-29T05:48:18;10.22;89.31
67165;SHT31;54093;50.014;19.984;2022-10-29T05:57:38;10.28;89.83
67165;SHT31;54093;50.014;19.984;2022-10-29T06:07:00;10.39;89.60
67165;SHT31;54093;50.014;19.984;2022-10-29T06:16:21;10.48;89.28
67165;SHT31;54093;50.014;19.984;2022-10-29T06:25:42;10.52;89.06
67165;SHT31;54093;50.014;19.984;2022-10-29T06:35:03;10.57;88.99
67165;SHT31;54093;50.014;19.984;2022-10-29T06:44:23;10.66;88.70
67165;SHT31;54093;50.014;19.984;2022-10-29T06:53:44;10.74;88.40
67165;SHT31;54093;50.014;19.984;2022-10-29T07:03:05;10.84;88.39
67165;SHT31;54093;50.014;19.984;2022-10-29T07:12:26;11.04;88.02
67165;SHT31;54093;50.014;19.984;2022-10-29T07:21:47;11.30;87.03
67165;SHT31;54093;50.014;19.984;2022-10-29T07:31:08;11.62;86.55
67165;SHT31;54093;50.014;19.984;2022-10-29T07:40:29;12.04;84.96
67165;SHT31;54093;50.014;19.984;2022-10-29T07:49:50;12.31;84.10
67165;SHT31;54093;50.014;19.984;2022-10-29T07:59:10;12.41;83.42
67165;SHT31;54093;50.014;19.984;2022-10-29T08:08:33;12.45;83.78
67165;SHT31;54093;50.014;19.984;2022-10-29T08:17:55;12.65;83.26
67165;SHT31;54093;50.014;19.984;2022-10-29T08:27:16;12.79;82.57
67165;SHT31;54093;50.014;19.984;2022-10-29T08:36:37;12.84;82.63
67165;SHT31;54093;50.014;19.984;2022-10-29T08:45:57;13.09;82.17
67165;SHT31;54093;50.014;19.984;2022-10-29T08:55:22;13.64;81.01
67165;SHT31;54093;50.014;19.984;2022-10-29T09:04:44;14.01;79.80
67165;SHT31;54093;50.014;19.984;2022-10-29T09:34:02;15.15;75.54
67165;SHT31;54093;50.014;19.984;2022-10-29T09:52:56;15.87;73.13
67165;SHT31;54093;50.014;19.984;2022-10-29T10:02:41;16.29;71.52
67165;SHT31;54093;50.014;19.984;2022-10-29T10:12:06;16.54;72.14
67165;SHT31;54093;50.014;19.984;2022-10-29T10:21:32;16.76;70.10
67165;SHT31;54093;50.014;19.984;2022-10-29T10:40:23;17.26;68.71
67165;SHT31;54093;50.014;19.984;2022-10-29T10:49:44;17.60;66.61
67165;SHT31;54093;50.014;19.984;2022-10-29T10:59:14;17.86;66.13
67165;SHT31;54093;50.014;19.984;2022-10-29T11:08:41;18.13;64.43
67165;SHT31;54093;50.014;19.984;2022-10-29T11:18:27;17.86;65.31
67165;SHT31;54093;50.014;19.984;2022-10-29T11:37:31;18.09;65.35
67165;SHT31;54093;50.014;19.984;2022-10-29T11:56:49;18.68;63.72
67165;SHT31;54093;50.014;19.984;2022-10-29T12:16:06;19.18;62.00
67165;SHT31;54093;50.014;19.984;2022-10-29T12:25:53;19.52;62.36
67165;SHT31;54093;50.014;19.984;2022-10-29T12:54:53;20.38;60.46
67165;SHT31;54093;50.014;19.984;2022-10-29T13:13:51;20.97;58.08
67165;SHT31;54093;50.014;19.984;2022-10-29T13:32:41;21.41;56.80
67165;SHT31;54093;50.014;19.984;2022-10-29T13:42:02;21.07;56.81
67165;SHT31;54093;50.014;19.984;2022-10-29T13:51:30;21.04;57.48
67165;SHT31;54093;50.014;19.984;2022-10-29T14:00:54;20.48;58.38
67165;SHT31;54093;50.014;19.984;2022-10-29T14:10:46;20.04;60.31
67165;SHT31;54093;50.014;19.984;2022-10-29T14:20:23;19.57;60.19
67165;SHT31;54093;50.014;19.984;2022-10-29T14:29:44;19.19;61.31
67165;SHT31;54093;50.014;19.984;2022-10-29T14:39:19;18.89;62.48
67165;SHT31;54093;50.014;19.984;2022-10-29T14:58:28;18.40;64.42
67165;SHT31;54093;50.014;19.984;2022-10-29T15:07:50;18.19;65.53
67165;SHT31;54093;50.014;19.984;2022-10-29T15:17:23;18.00;66.06
67165;SHT31;54093;50.014;19.984;2022-10-29T15:26:56;17.75;67.12
67165;SHT31;54093;50.014;19.984;2022-10-29T15:36:18;17.45;68.41
67165;SHT31;54093;50.014;19.984;2022-10-29T15:45:54;17.19;69.36
67165;SHT31;54093;50.014;19.984;2022-10-29T15:55:33;16.99;69.99
67165;SHT31;54093;50.014;19.984;2022-10-29T16:04:54;16.75;70.50
67165;SHT31;54093;50.014;19.984;2022-10-29T16:14:14;16.54;70.35
67165;SHT31;54093;50.014;19.984;2022-10-29T16:23:36;16.29;70.96
67165;SHT31;54093;50.014;19.984;2022-10-29T16:32:59;16.08;71.91
67165;SHT31;54093;50.014;19.984;2022-10-29T16:42:29;15.85;73.08
67165;SHT31;54093;50.014;19.984;2022-10-29T16:51:50;15.60;74.10
67165;SHT31;54093;50.014;19.984;2022-10-29T17:01:11;15.42;74.87
67165;SHT31;54093;50.014;19.984;2022-10-29T17:10:32;15.29;75.51
67165;SHT31;54093;50.014;19.984;2022-10-29T17:19:53;15.14;76.15
67165;SHT31;54093;50.014;19.984;2022-10-29T17:29:13;15.01;76.73
67165;SHT31;54093;50.014;19.984;2022-10-29T17:38:34;14.88;77.24
67165;SHT31;54093;50.014;19.984;2022-10-29T17:47:55;14.74;77.90
67165;SHT31;54093;50.014;19.984;2022-10-29T17:57:17;14.59;78.50
67165;SHT31;54093;50.014;19.984;2022-10-29T18:06:37;14.46;78.93
67165;SHT31;54093;50.014;19.984;2022-10-29T18:15:59;14.32;79.53
67165;SHT31;54093;50.014;19.984;2022-10-29T18:25:20;14.25;79.62
67165;SHT31;54093;50.014;19.984;2022-10-29T18:34:41;14.25;79.32
67165;SHT31;54093;50.014;19.984;2022-10-29T18:44:01;14.16;79.61
67165;SHT31;54093;50.014;19.984;2022-10-29T18:53:22;14.16;79.77
67165;SHT31;54093;50.014;19.984;2022-10-29T19:02:43;14.02;80.02
67165;SHT31;54093;50.014;19.984;2022-10-29T19:12:04;13.89;80.63
67165;SHT31;54093;50.014;19.984;2022-10-29T19:21:25;13.81;81.17
67165;SHT31;54093;50.014;19.984;2022-10-29T19:30:46;13.63;81.64
67165;SHT31;54093;50.014;19.984;2022-10-29T19:40:07;13.55;82.00
67165;SHT31;54093;50.014;19.984;2022-10-29T19:49:28;13.53;81.69
67165;SHT31;54093;50.014;19.984;2022-10-29T19:58:49;13.46;82.11
67165;SHT31;54093;50.014;19.984;2022-10-29T20:08:11;13.34;82.56
67165;SHT31;54093;50.014;19.984;2022-10-29T20:17:32;13.28;82.91
67165;SHT31;54093;50.014;19.984;2022-10-29T20:26:52;13.33;82.51
67165;SHT31;54093;50.014;19.984;2022-10-29T20:36:13;13.24;82.93
67165;SHT31;54093;50.014;19.984;2022-10-29T20:45:34;13.16;83.74
67165;SHT31;54093;50.014;19.984;2022-10-29T20:54:54;13.10;83.87
67165;SHT31;54093;50.014;19.984;2022-10-29T21:04:15;13.12;83.62
67165;SHT31;54093;50.014;19.984;2022-10-29T21:13:39;13.16;83.58
67165;SHT31;54093;50.014;19.984;2022-10-29T21:22:59;13.12;83.82
67165;SHT31;54093;50.014;19.984;2022-10-29T21:32:20;13.09;83.92
67165;SHT31;54093;50.014;19.984;2022-10-29T21:41:41;13.09;83.91
67165;SHT31;54093;50.014;19.984;2022-10-29T21:51:08;13.02;84.06
67165;SHT31;54093;50.014;19.984;2022-10-29T22:00:30;12.93;84.62
67165;SHT31;54093;50.014;19.984;2022-10-29T22:09:51;12.84;84.90
67165;SHT31;54093;50.014;19.984;2022-10-29T22:19:11;12.84;85.14
67165;SHT31;54093;50.014;19.984;2022-10-29T22:28:32;12.85;84.83
67165;SHT31;54093;50.014;19.984;2022-10-29T22:37:53;12.95;84.31
67165;SHT31;54093;50.014;19.984;2022-10-29T22:47:14;12.96;84.38
67165;SHT31;54093;50.014;19.984;2022-10-29T22:56:36;12.99;83.90
67165;SHT31;54093;50.014;19.984;2022-10-29T23:05:59;12.97;83.82
67165;SHT31;54093;50.014;19.984;2022-10-29T23:15:20;12.88;84.29
67165;SHT31;54093;50.014;19.984;2022-10-29T23:24:41;12.84;84.23
67165;SHT31;54093;50.014;19.984;2022-10-29T23:34:01;12.82;84.28
67165;SHT31;54093;50.014;19.984;2022-10-29T23:43:22;12.76;84.53
67165;SHT31;54093;50.014;19.984;2022-10-29T23:52:43;12.74;84.63
